Terminal Aerodrome Forecast
Issued by NWS Tampa Bay Area, FL

Home | Current Version | Previous Version | Text Only | Print | Product List | Glossary Off
Versions: 1 2 3 4 5 6 7 8 9 10 11 12 13 14 15 16 17

000
FTUS42 KTBW 171100
TAFSRQ
TAF
KSRQ 171122Z 1712/1812 06009KT P6SM BKN040
     FM171400 08013G20KT P6SM SCT025 BKN040
     FM172000 08015G22KT P6SM VCSH SCT040 BKN100
     FM180200 07010KT P6SM FEW040 BKN100=

USA.gov is the U.S. government's official web portal to all federal, state and local government web resources and services.